Time;durP1;ratioP1;P1;durP2;ratioP2;P2;SDS_P1;SDS_P2;PMS_P1;PMS_P2;Temp;Humidity;BMP_temperature;BMP_pressure;BME280_temperature;BME280_humidity;BME280_pressure;Samples;Min_cycle;Max_cycle;Signal;HPM_P1;HPM_P2
2021/06/02 00:01:56;;;;;;;7.78;5.55;;;16.90;99.90;;;;;;5037715;28;20033;-79
2021/06/02 00:04:30;;;;;;;7.25;5.30;;;16.90;99.90;;;;;;5037024;28;20054;-79
2021/06/02 00:07:03;;;;;;;7.00;5.60;;;16.80;99.90;;;;;;5037351;28;20017;-81
2021/06/02 00:09:29;;;;;;;7.68;5.28;;;16.80;99.90;;;;;;5026318;28;20022;-81
2021/06/02 00:11:56;;;;;;;5.72;4.88;;;16.70;99.90;;;;;;5035704;28;20482;-77
2021/06/02 00:14:24;;;;;;;29.48;5.75;;;16.70;99.90;;;;;;5032950;28;20021;-80
2021/06/02 00:16:54;;;;;;;7.95;4.80;;;16.60;99.90;;;;;;5034671;28;20033;-80
2021/06/02 00:19:20;;;;;;;7.88;5.07;;;16.60;99.90;;;;;;5036436;28;20028;-78
2021/06/02 00:21:46;;;;;;;7.40;5.05;;;16.60;99.90;;;;;;5040858;28;20025;-79
2021/06/02 00:24:12;;;;;;;7.82;5.68;;;16.60;99.90;;;;;;5040507;28;20039;-78
2021/06/02 00:26:39;;;;;;;9.40;5.05;;;16.60;99.90;;;;;;5030856;28;20449;-80
2021/06/02 00:29:07;;;;;;;6.50;4.70;;;16.50;99.90;;;;;;5038415;28;20018;-79
2021/06/02 00:31:36;;;;;;;5.68;5.15;;;16.50;99.90;;;;;;5029672;28;20105;-80
2021/06/02 00:34:03;;;;;;;6.70;5.40;;;16.50;99.90;;;;;;5036534;28;20025;-81
2021/06/02 00:36:29;;;;;;;8.20;5.15;;;16.40;99.90;;;;;;5034416;28;20112;-80
2021/06/02 00:38:55;;;;;;;11.07;5.25;;;16.40;99.90;;;;;;5032714;28;20112;-78
2021/06/02 00:41:21;;;;;;;6.65;4.68;;;16.30;99.90;;;;;;5033825;28;20111;-80
2021/06/02 00:43:48;;;;;;;6.32;4.75;;;16.30;99.90;;;;;;5029574;28;20112;-80
2021/06/02 00:46:19;;;;;;;6.00;4.70;;;16.20;99.90;;;;;;5033677;28;20470;-81
2021/06/02 00:48:45;;;;;;;10.13;4.95;;;16.10;99.90;;;;;;5033116;28;20041;-78
2021/06/02 00:51:12;;;;;;;7.82;5.28;;;16.10;99.90;;;;;;5033259;28;20025;-79
2021/06/02 00:53:38;;;;;;;9.10;5.30;;;16.10;99.90;;;;;;5033135;28;20044;-79
2021/06/02 00:56:08;;;;;;;9.38;4.63;;;16.00;99.90;;;;;;5033152;28;20458;-78
2021/06/02 00:58:42;;;;;;;7.03;4.65;;;16.00;99.90;;;;;;5032844;28;20446;-77
2021/06/02 01:01:09;;;;;;;8.00;5.10;;;15.90;99.90;;;;;;5032398;28;20104;-78
2021/06/02 01:03:38;;;;;;;9.93;5.90;;;15.90;99.90;;;;;;5032863;28;20072;-78
2021/06/02 01:06:04;;;;;;;7.68;5.00;;;15.90;99.90;;;;;;5032695;28;20045;-79
2021/06/02 01:08:31;;;;;;;5.97;5.38;;;15.80;99.90;;;;;;5032502;28;20037;-79
2021/06/02 01:10:57;;;;;;;6.60;5.03;;;15.80;99.90;;;;;;5014515;28;20025;-80
2021/06/02 01:13:24;;;;;;;8.05;5.00;;;15.70;99.90;;;;;;5032475;28;20501;-79
2021/06/02 01:15:52;;;;;;;10.30;5.50;;;15.70;99.90;;;;;;5032101;28;20025;-79
2021/06/02 01:18:19;;;;;;;6.78;5.50;;;15.70;99.90;;;;;;5031926;28;20014;-80
2021/06/02 01:20:45;;;;;;;6.97;4.63;;;15.60;99.90;;;;;;5030425;28;20047;-80
2021/06/02 01:23:12;;;;;;;7.15;5.10;;;15.70;99.90;;;;;;5032385;28;20033;-79
2021/06/02 01:25:40;;;;;;;7.75;5.50;;;15.70;99.90;;;;;;5032632;28;20018;-78
2021/06/02 01:28:06;;;;;;;12.45;4.88;;;15.70;99.90;;;;;;5032010;28;20075;-78
2021/06/02 01:30:33;;;;;;;10.20;5.15;;;15.60;99.90;;;;;;5032399;28;20021;-79
2021/06/02 01:33:07;;;;;;;7.05;4.70;;;15.60;99.90;;;;;;5032101;28;20030;-79
2021/06/02 01:36:03;;;;;;;7.97;5.13;;;15.60;99.90;;;;;;5032431;28;20061;-78
2021/06/02 01:39:17;;;;;;;5.95;4.53;;;15.60;99.90;;;;;;5032109;28;20021;-81
2021/06/02 01:42:10;;;;;;;6.70;4.93;;;15.60;99.90;;;;;;5031816;28;20038;-78
2021/06/02 01:44:55;;;;;;;7.80;5.43;;;15.60;99.90;;;;;;5003150;28;20053;-81
2021/06/02 01:47:49;;;;;;;9.38;4.90;;;15.60;99.90;;;;;;5032139;28;20477;-78
2021/06/02 01:50:48;;;;;;;6.97;4.70;;;15.60;99.90;;;;;;5015683;28;20049;-80
2021/06/02 01:53:26;;;;;;;10.30;5.13;;;15.60;99.90;;;;;;5017790;28;20072;-80
2021/06/02 01:56:16;;;;;;;5.85;4.53;;;15.60;99.90;;;;;;5012401;28;20540;-78
2021/06/02 01:59:09;;;;;;;7.68;5.10;;;15.60;99.90;;;;;;5012097;28;20022;-79
2021/06/02 02:02:09;;;;;;;8.38;5.15;;;15.60;99.90;;;;;;5011769;28;20475;-80
2021/06/02 02:05:06;;;;;;;6.78;4.60;;;15.70;99.90;;;;;;4994435;28;20029;-80
2021/06/02 02:07:56;;;;;;;7.35;4.72;;;15.70;99.90;;;;;;5022885;28;20021;-80
2021/06/02 02:10:48;;;;;;;9.70;4.90;;;15.60;99.90;;;;;;5012016;28;20026;-80
2021/06/02 02:13:28;;;;;;;7.20;4.83;;;15.60;99.90;;;;;;5011991;28;20371;-81
2021/06/02 02:16:10;;;;;;;5.88;4.70;;;15.60;99.90;;;;;;5012063;28;20140;-80
2021/06/02 02:19:32;;;;;;;6.88;5.32;;;15.60;99.90;;;;;;5012062;28;20018;-78
2021/06/02 02:22:22;;;;;;;8.25;5.22;;;15.60;99.90;;;;;;4932241;29;20032;-79
2021/06/02 02:25:00;;;;;;;10.07;5.10;;;15.60;99.90;;;;;;4932269;29;20028;-79
2021/06/02 02:27:43;;;;;;;8.38;5.32;;;15.50;99.90;;;;;;4998873;28;20530;-80
2021/06/02 02:30:23;;;;;;;7.43;5.07;;;15.50;99.90;;;;;;5011628;28;20411;-80
2021/06/02 02:33:13;;;;;;;8.88;4.97;;;15.50;99.90;;;;;;5011924;28;20053;-79
2021/06/02 02:35:57;;;;;;;6.63;5.03;;;15.50;99.90;;;;;;5011688;28;20438;-78
2021/06/02 02:38:31;;;;;;;8.25;4.60;;;15.50;99.90;;;;;;5011478;28;20386;-81
2021/06/02 02:41:29;;;;;;;7.65;4.72;;;15.60;99.90;;;;;;5014877;28;20026;-79
2021/06/02 02:43:59;;;;;;;7.80;5.40;;;15.60;99.90;;;;;;5015769;28;20042;-77
2021/06/02 02:46:38;;;;;;;5.95;5.35;;;15.60;99.90;;;;;;5016045;28;20045;-82
2021/06/02 02:49:19;;;;;;;6.35;5.40;;;15.70;99.90;;;;;;5015599;28;20506;-80
2021/06/02 02:52:15;;;;;;;5.80;5.20;;;15.60;99.90;;;;;;5015924;28;20030;-75
2021/06/02 02:55:06;;;;;;;14.10;5.00;;;15.60;99.90;;;;;;5015607;28;20072;-79
2021/06/02 02:57:44;;;;;;;9.35;5.03;;;15.60;99.90;;;;;;4999216;28;20064;-80
2021/06/02 03:00:16;;;;;;;8.80;5.07;;;15.70;99.90;;;;;;5025957;28;20026;-80
2021/06/02 03:03:05;;;;;;;8.43;5.25;;;15.60;99.90;;;;;;5015019;28;20042;-80
2021/06/02 03:05:33;;;;;;;10.00;5.60;;;15.60;99.90;;;;;;5015642;28;20041;-81
2021/06/02 03:08:23;;;;;;;9.07;5.53;;;15.60;99.90;;;;;;5015526;28;20137;-80
2021/06/02 03:11:02;;;;;;;5.55;4.88;;;15.60;99.90;;;;;;5015275;28;20022;-80
2021/06/02 03:13:53;;;;;;;7.13;5.40;;;15.60;99.90;;;;;;5020831;28;20033;-81
2021/06/02 03:16:34;;;;;;;7.18;5.18;;;15.50;99.90;;;;;;5020021;28;20030;-78
2021/06/02 03:19:23;;;;;;;17.15;6.13;;;15.50;99.90;;;;;;5022174;28;20022;-79
2021/06/02 03:22:18;;;;;;;13.25;5.45;;;15.50;99.90;;;;;;5014158;28;20095;-80
2021/06/02 03:25:01;;;;;;;8.77;4.95;;;15.50;99.90;;;;;;5036227;28;20094;-78
2021/06/02 03:27:35;;;;;;;6.22;5.28;;;15.50;99.90;;;;;;5025127;28;20064;-81
2021/06/02 03:30:23;;;;;;;15.38;5.55;;;15.50;99.90;;;;;;5044401;28;20041;-80
2021/06/02 03:33:16;;;;;;;6.03;5.43;;;15.50;99.90;;;;;;5023107;28;20029;-80
2021/06/02 03:36:05;;;;;;;6.47;5.03;;;15.60;99.90;;;;;;5030076;28;20045;-80
2021/06/02 03:38:59;;;;;;;9.15;5.05;;;15.70;99.90;;;;;;5013788;28;20041;-77
2021/06/02 03:42:03;;;;;;;12.40;5.50;;;15.70;99.90;;;;;;5026960;28;20017;-81
2021/06/02 03:44:46;;;;;;;7.38;5.30;;;15.80;99.90;;;;;;5021762;28;20044;-78
2021/06/02 03:47:45;;;;;;;7.85;5.80;;;15.80;99.90;;;;;;5042516;28;20025;-81
2021/06/02 03:50:19;;;;;;;11.82;5.72;;;15.80;99.90;;;;;;5030622;28;20044;-76
2021/06/02 03:53:03;;;;;;;8.82;5.88;;;16.00;99.90;;;;;;5037971;28;20021;-78
2021/06/02 03:55:57;;;;;;;6.30;5.18;;;16.00;99.90;;;;;;5040440;28;20028;-77
2021/06/02 03:58:32;;;;;;;8.07;4.82;;;16.10;99.90;;;;;;5015580;28;20554;-80
2021/06/02 04:01:19;;;;;;;10.82;6.00;;;16.10;99.90;;;;;;5034155;28;20029;-80
2021/06/02 04:04:16;;;;;;;7.45;5.00;;;16.20;99.90;;;;;;5019296;28;20034;-80
2021/06/02 04:07:11;;;;;;;15.27;5.75;;;16.30;99.90;;;;;;4986727;28;20453;-79
2021/06/02 04:10:02;;;;;;;7.72;5.18;;;16.40;99.90;;;;;;5013662;28;20018;-78
2021/06/02 04:13:00;;;;;;;7.50;5.07;;;16.50;99.90;;;;;;5014391;28;20026;-78
2021/06/02 04:15:29;;;;;;;9.48;5.72;;;16.60;99.90;;;;;;5014533;28;20033;-79
2021/06/02 04:17:57;;;;;;;12.50;5.65;;;16.80;99.90;;;;;;5013860;28;20030;-80
2021/06/02 04:20:24;;;;;;;11.45;5.15;;;17.00;99.90;;;;;;5014099;28;20449;-80
2021/06/02 04:22:51;;;;;;;6.50;5.07;;;17.30;99.90;;;;;;5026787;28;20130;-79
2021/06/02 04:25:18;;;;;;;8.38;5.68;;;17.80;99.90;;;;;;5031007;28;20029;-81
2021/06/02 04:27:48;;;;;;;12.63;4.93;;;18.50;99.90;;;;;;5043339;28;20036;-78
2021/06/02 04:30:18;;;;;;;8.68;4.93;;;20.00;99.90;;;;;;5041745;28;20029;-78
2021/06/02 04:32:47;;;;;;;6.35;4.47;;;21.90;99.90;;;;;;5042896;28;20029;-81
2021/06/02 04:35:16;;;;;;;6.35;4.60;;;23.40;99.90;;;;;;5042671;28;20030;-79
2021/06/02 04:37:42;;;;;;;7.05;4.60;;;24.70;98.20;;;;;;5045452;28;20025;-80
2021/06/02 04:40:09;;;;;;;4.78;3.85;;;25.70;96.30;;;;;;5045500;28;20021;-80
2021/06/02 04:42:36;;;;;;;5.35;3.95;;;26.00;94.90;;;;;;5041682;28;20479;-78
2021/06/02 04:45:13;;;;;;;7.07;4.07;;;26.80;94.20;;;;;;5039712;28;20054;-81
2021/06/02 04:47:40;;;;;;;10.85;3.85;;;27.30;93.30;;;;;;5040687;28;20025;-81
2021/06/02 04:50:18;;;;;;;10.65;3.70;;;28.10;92.40;;;;;;5045558;28;20049;-78
2021/06/02 04:53:05;;;;;;;5.22;3.33;;;28.50;91.60;;;;;;5040868;28;20108;-79
2021/06/02 04:55:49;;;;;;;7.03;4.07;;;29.20;90.50;;;;;;5039442;28;20035;-81
2021/06/02 04:58:42;;;;;;;11.13;3.63;;;29.50;90.00;;;;;;5026294;28;20064;-79
2021/06/02 05:01:29;;;;;;;4.95;3.13;;;30.10;88.30;;;;;;5032888;28;20539;-82
2021/06/02 05:04:21;;;;;;;9.50;3.38;;;30.70;86.60;;;;;;5020992;28;20045;-79
2021/06/02 05:07:17;;;;;;;4.78;3.67;;;31.40;84.70;;;;;;5009346;28;20117;-81
2021/06/02 05:10:04;;;;;;;6.03;3.28;;;31.70;83.70;;;;;;5013041;28;20421;-82
2021/06/02 05:12:36;;;;;;;6.07;3.58;;;32.70;81.60;;;;;;5013094;28;20049;-82
2021/06/02 05:15:13;;;;;;;8.02;2.90;;;33.30;79.40;;;;;;5012988;28;20022;-81
2021/06/02 05:18:30;;;;;;;5.53;2.50;;;34.00;78.10;;;;;;5012599;28;20033;-80
2021/06/02 05:24:10;;;;;;;5.32;2.60;;;35.10;74.80;;;;;;5013211;28;20030;-77
2021/06/02 05:26:57;;;;;;;9.15;2.70;;;35.60;73.60;;;;;;5012409;28;20072;-81
2021/06/02 05:29:41;;;;;;;6.72;2.45;;;35.60;73.30;;;;;;5012978;28;20518;-80
2021/06/02 05:32:31;;;;;;;5.80;2.75;;;36.10;72.50;;;;;;4995248;28;20533;-80
2021/06/02 05:35:54;;;;;;;4.47;2.50;;;36.90;71.00;;;;;;5012657;28;20076;-77
2021/06/02 05:38:47;;;;;;;3.78;2.47;;;37.40;69.80;;;;;;4932835;29;20054;-77
2021/06/02 05:41:55;;;;;;;4.15;2.45;;;37.70;68.70;;;;;;4948011;29;20035;-81
2021/06/02 05:44:46;;;;;;;10.38;2.58;;;38.10;67.60;;;;;;4939951;29;20048;-77
2021/06/02 05:47:33;;;;;;;4.38;2.20;;;38.60;66.60;;;;;;4934061;29;20034;-81
2021/06/02 05:50:13;;;;;;;3.53;2.45;;;39.10;65.20;;;;;;4996461;28;20136;-78
2021/06/02 05:53:18;;;;;;;4.32;2.30;;;39.30;64.70;;;;;;5016259;28;20028;-75
2021/06/02 05:55:49;;;;;;;7.55;2.20;;;39.50;64.00;;;;;;5031941;28;20022;-77
2021/06/02 05:58:24;;;;;;;3.70;2.17;;;39.60;63.40;;;;;;5021557;28;20101;-78
2021/06/02 06:01:08;;;;;;;2.35;2.00;;;39.80;62.70;;;;;;5012061;28;20053;-77
2021/06/02 06:03:55;;;;;;;2.47;1.98;;;40.30;62.40;;;;;;4994467;28;20111;-80
2021/06/02 06:06:24;;;;;;;3.63;1.92;;;40.40;62.00;;;;;;5011560;28;20032;-77
2021/06/02 06:09:28;;;;;;;6.35;2.28;;;40.50;61.90;;;;;;5012365;28;20032;-78
2021/06/02 06:12:23;;;;;;;3.80;1.90;;;40.60;61.00;;;;;;5012090;28;20076;-78
2021/06/02 06:15:13;;;;;;;7.65;1.83;;;41.10;60.40;;;;;;5022915;28;20036;-82
2021/06/02 06:18:14;;;;;;;6.72;2.00;;;41.20;59.30;;;;;;5031758;28;20072;-80
2021/06/02 06:20:55;;;;;;;3.55;2.05;;;41.60;59.00;;;;;;5030658;28;20025;-81
2021/06/02 06:23:52;;;;;;;7.25;1.92;;;41.40;58.30;;;;;;5011218;28;20046;-80
2021/06/02 06:26:40;;;;;;;4.82;2.00;;;41.80;58.30;;;;;;5030717;28;20018;-78
2021/06/02 06:29:29;;;;;;;5.22;2.00;;;42.20;57.80;;;;;;5030676;28;20478;-78
2021/06/02 06:31:56;;;;;;;5.93;1.98;;;42.20;56.70;;;;;;5029796;28;20397;-77
2021/06/02 06:34:25;;;;;;;3.03;1.70;;;42.30;56.20;;;;;;5031066;28;20014;-78
2021/06/02 06:36:54;;;;;;;3.67;2.00;;;42.60;56.70;;;;;;5029713;28;20026;-80
2021/06/02 06:39:29;;;;;;;2.88;1.70;;;42.70;56.00;;;;;;5030474;28;20026;-81
2021/06/02 06:41:56;;;;;;;5.78;2.05;;;42.80;55.20;;;;;;5029330;28;20124;-79
2021/06/02 06:44:23;;;;;;;5.60;2.22;;;42.10;55.80;;;;;;5030681;28;20033;-78
2021/06/02 06:46:56;;;;;;;5.65;1.95;;;41.40;55.50;;;;;;5030064;28;20509;-79
2021/06/02 06:49:23;;;;;;;5.13;2.10;;;40.30;56.10;;;;;;5021902;28;20060;-80
2021/06/02 06:51:54;;;;;;;3.40;2.47;;;38.80;57.00;;;;;;5050147;28;20075;-77
2021/06/02 06:54:23;;;;;;;7.55;2.13;;;37.40;59.20;;;;;;5049092;28;20029;-82
2021/06/02 06:56:50;;;;;;;3.47;2.20;;;35.90;61.30;;;;;;5042804;28;20029;-81
2021/06/02 06:59:17;;;;;;;2.55;1.98;;;34.70;61.60;;;;;;5034639;28;20037;-82
2021/06/02 07:01:43;;;;;;;8.85;2.35;;;33.50;63.40;;;;;;5030618;28;20079;-80
2021/06/02 07:04:09;;;;;;;4.47;2.78;;;32.50;65.10;;;;;;5029381;28;20437;-80
2021/06/02 07:06:38;;;;;;;5.95;3.03;;;31.50;66.60;;;;;;5026881;28;20025;-75
2021/06/02 07:09:05;;;;;;;12.18;2.83;;;30.70;67.80;;;;;;5026850;28;20060;-78
2021/06/02 07:11:40;;;;;;;3.33;2.50;;;30.00;68.80;;;;;;5025643;28;20022;-75
2021/06/02 07:14:09;;;;;;;4.80;2.78;;;29.60;68.80;;;;;;5028041;28;20013;-80
2021/06/02 07:16:39;;;;;;;4.40;2.30;;;29.30;70.30;;;;;;5028595;28;20057;-78
2021/06/02 07:19:06;;;;;;;8.40;2.97;;;29.30;69.90;;;;;;5022910;28;20026;-77
2021/06/02 07:21:35;;;;;;;5.53;3.78;;;29.20;70.80;;;;;;5025207;28;20417;-79
2021/06/02 07:24:01;;;;;;;7.88;3.05;;;29.20;74.10;;;;;;5013741;28;20042;-80
2021/06/02 07:26:27;;;;;;;6.47;3.13;;;29.20;75.40;;;;;;5023894;28;20112;-79
2021/06/02 07:28:54;;;;;;;7.45;3.20;;;29.00;76.10;;;;;;5032329;28;20125;-79
2021/06/02 07:31:19;;;;;;;9.38;3.00;;;29.00;76.40;;;;;;5033953;28;20079;-77
2021/06/02 07:33:47;;;;;;;10.07;3.58;;;29.20;76.20;;;;;;5032748;28;20025;-77
2021/06/02 07:36:13;;;;;;;12.88;3.08;;;29.30;75.50;;;;;;5031916;28;20029;-79
2021/06/02 07:38:41;;;;;;;7.05;2.50;;;29.30;75.50;;;;;;5029941;28;20072;-78
2021/06/02 07:41:08;;;;;;;4.75;2.83;;;29.30;73.70;;;;;;5030642;28;20524;-80
2021/06/02 07:43:34;;;;;;;5.65;2.90;;;29.20;74.40;;;;;;5029946;28;20029;-80
2021/06/02 07:46:00;;;;;;;5.50;2.85;;;29.00;73.90;;;;;;5019212;28;20175;-79
2021/06/02 07:48:26;;;;;;;10.82;3.00;;;28.90;73.30;;;;;;5033391;28;20059;-82
2021/06/02 07:50:52;;;;;;;5.43;2.65;;;28.80;74.20;;;;;;5024919;28;20111;-80
2021/06/02 07:53:18;;;;;;;11.77;3.05;;;28.30;74.80;;;;;;5031219;28;20080;-79
2021/06/02 07:55:43;;;;;;;3.85;2.42;;;28.30;73.70;;;;;;5032031;28;20032;-80
2021/06/02 07:58:09;;;;;;;7.28;2.83;;;28.40;73.10;;;;;;5031004;28;20036;-81
2021/06/02 08:00:35;;;;;;;17.40;3.22;;;28.40;73.60;;;;;;5029418;28;20433;-81
2021/06/02 08:03:01;;;;;;;7.00;3.20;;;28.40;74.60;;;;;;5032056;28;20516;-80
2021/06/02 08:05:26;;;;;;;6.47;3.35;;;28.40;76.80;;;;;;5031875;28;20049;-80
2021/06/02 08:07:52;;;;;;;5.70;3.50;;;28.30;77.90;;;;;;5031623;28;20167;-79
2021/06/02 08:10:18;;;;;;;5.13;3.67;;;28.20;78.20;;;;;;5030528;28;20434;-76
2021/06/02 08:12:45;;;;;;;5.50;3.60;;;28.20;79.00;;;;;;5031404;28;20424;-77
2021/06/02 08:15:12;;;;;;;6.68;3.40;;;28.10;79.20;;;;;;5031374;28;20053;-78
2021/06/02 08:17:39;;;;;;;11.45;4.07;;;28.00;79.60;;;;;;5038746;28;20025;-78
2021/06/02 08:20:08;;;;;;;7.97;3.95;;;27.70;80.60;;;;;;5052776;28;20075;-78
2021/06/02 08:22:34;;;;;;;8.25;2.95;;;27.60;80.40;;;;;;5050329;28;20086;-78
2021/06/02 08:25:05;;;;;;;5.53;3.55;;;27.60;80.50;;;;;;5030101;28;20026;-77
2021/06/02 08:27:31;;;;;;;9.90;3.63;;;27.80;80.20;;;;;;5024324;28;20457;-78
2021/06/02 08:29:57;;;;;;;7.35;3.42;;;27.80;81.40;;;;;;5022454;28;20022;-78
2021/06/02 08:32:24;;;;;;;9.75;3.92;;;27.90;80.70;;;;;;5019792;28;20033;-78
2021/06/02 08:34:50;;;;;;;7.93;3.60;;;28.10;80.10;;;;;;5016125;28;20105;-77
2021/06/02 08:37:16;;;;;;;17.15;3.45;;;28.10;80.50;;;;;;5015218;28;20064;-78
2021/06/02 08:39:42;;;;;;;4.30;3.20;;;28.10;80.00;;;;;;5015042;28;20030;-78
2021/06/02 08:42:09;;;;;;;5.95;3.80;;;28.00;80.40;;;;;;5016210;28;20501;-76
2021/06/02 08:44:35;;;;;;;7.60;3.17;;;27.80;80.30;;;;;;5015200;28;20030;-77
2021/06/02 08:47:02;;;;;;;14.40;3.70;;;27.80;79.60;;;;;;5017523;28;20064;-78
2021/06/02 08:49:28;;;;;;;5.85;4.25;;;27.80;79.10;;;;;;5016706;28;20045;-78
2021/06/02 08:51:54;;;;;;;13.07;3.78;;;27.50;80.00;;;;;;5030357;28;20028;-77
2021/06/02 08:54:23;;;;;;;5.35;3.55;;;27.30;80.30;;;;;;5028244;28;20029;-78
2021/06/02 08:56:49;;;;;;;6.25;3.30;;;26.80;80.30;;;;;;5031918;28;20068;-78
2021/06/02 08:59:16;;;;;;;12.38;3.20;;;26.70;80.30;;;;;;5023210;28;20014;-78
2021/06/02 09:01:42;;;;;;;12.68;4.53;;;26.90;81.10;;;;;;5030706;28;20433;-78
2021/06/02 09:04:09;;;;;;;5.75;3.45;;;27.20;78.80;;;;;;5031915;28;20109;-78
2021/06/02 09:06:47;;;;;;;6.45;4.35;;;27.40;78.00;;;;;;5030021;28;20030;-77
2021/06/02 09:09:15;;;;;;;3.78;2.60;;;27.50;78.20;;;;;;5025503;28;20550;-78
2021/06/02 09:11:46;;;;;;;5.50;2.53;;;27.40;76.00;;;;;;5020168;28;20383;-79
2021/06/02 09:14:30;;;;;;;4.55;2.80;;;27.30;75.20;;;;;;5028041;28;20466;-77
2021/06/02 09:16:58;;;;;;;2.38;1.90;;;27.50;75.70;;;;;;5040459;28;20028;-78
2021/06/02 09:19:45;;;;;;;6.28;2.70;;;27.30;71.90;;;;;;5040235;28;20043;-78
2021/06/02 09:22:21;;;;;;;12.05;2.47;;;27.10;73.50;;;;;;5044372;28;20021;-79
2021/06/02 09:24:54;;;;;;;5.28;2.15;;;27.00;72.90;;;;;;5037938;28;20025;-77
2021/06/02 09:27:45;;;;;;;3.58;2.22;;;26.90;71.40;;;;;;5034828;28;20025;-78
2021/06/02 09:30:19;;;;;;;4.13;2.20;;;26.60;72.30;;;;;;5039547;28;20101;-77
2021/06/02 09:32:47;;;;;;;4.80;2.65;;;26.60;72.60;;;;;;5015959;28;20034;-78
2021/06/02 09:35:14;;;;;;;6.70;1.90;;;26.70;71.70;;;;;;5026420;28;20103;-79
2021/06/02 09:37:50;;;;;;;5.95;2.00;;;26.70;70.80;;;;;;5016372;28;20054;-77
2021/06/02 09:40:32;;;;;;;4.35;2.70;;;26.70;73.40;;;;;;5021473;28;20063;-78
2021/06/02 09:42:58;;;;;;;3.92;2.60;;;26.60;75.30;;;;;;5015433;28;20034;-78
2021/06/02 09:45:25;;;;;;;8.63;2.78;;;26.60;75.50;;;;;;5025209;28;20036;-77
2021/06/02 09:47:57;;;;;;;12.82;2.58;;;26.70;75.70;;;;;;5031816;28;20048;-78
2021/06/02 09:50:31;;;;;;;8.35;3.28;;;27.00;76.20;;;;;;5023020;28;20067;-79
2021/06/02 09:52:59;;;;;;;9.40;3.00;;;27.00;74.30;;;;;;5028477;28;20032;-78
2021/06/02 09:55:38;;;;;;;3.08;2.55;;;26.80;73.70;;;;;;5025449;28;20025;-79
2021/06/02 09:58:07;;;;;;;9.85;2.63;;;26.60;76.50;;;;;;5020279;28;20013;-78
2021/06/02 10:00:42;;;;;;;6.07;3.45;;;26.50;78.00;;;;;;5030053;28;20389;-78
2021/06/02 10:03:15;;;;;;;3.78;2.75;;;26.40;77.70;;;;;;5026046;28;20497;-78
2021/06/02 10:05:43;;;;;;;7.20;2.78;;;26.30;79.40;;;;;;5017446;28;20105;-77
2021/06/02 10:08:11;;;;;;;6.32;3.13;;;26.30;77.80;;;;;;5029700;28;20033;-77
2021/06/02 10:10:40;;;;;;;4.00;2.95;;;26.40;77.00;;;;;;5025398;28;20017;-78
2021/06/02 10:13:13;;;;;;;8.77;2.92;;;26.40;76.00;;;;;;5016331;28;20030;-79
2021/06/02 10:15:39;;;;;;;3.90;2.85;;;26.60;75.50;;;;;;5031774;28;20061;-79
2021/06/02 10:18:22;;;;;;;7.13;3.58;;;26.40;74.90;;;;;;5026116;28;20075;-77
2021/06/02 10:21:11;;;;;;;5.75;3.03;;;26.30;74.40;;;;;;5024520;28;20028;-78
2021/06/02 10:23:45;;;;;;;7.55;2.50;;;26.40;75.20;;;;;;5023752;28;20504;-79
2021/06/02 10:26:12;;;;;;;4.65;3.20;;;26.40;74.20;;;;;;5034197;28;20383;-79
2021/06/02 10:28:38;;;;;;;6.82;3.58;;;26.40;74.50;;;;;;5026044;28;20533;-78
2021/06/02 10:31:08;;;;;;;6.78;3.60;;;26.40;77.40;;;;;;5032256;28;20060;-78
2021/06/02 10:33:34;;;;;;;18.80;4.75;;;26.50;78.40;;;;;;5019100;28;20033;-79
2021/06/02 10:36:02;;;;;;;6.68;4.07;;;26.60;80.00;;;;;;5019842;28;20095;-79
2021/06/02 10:38:32;;;;;;;11.90;4.22;;;26.30;80.50;;;;;;5026089;28;20026;-79
2021/06/02 10:41:00;;;;;;;7.80;3.80;;;26.20;81.60;;;;;;5015934;28;20018;-79
2021/06/02 10:43:34;;;;;;;6.90;3.58;;;26.10;80.60;;;;;;5022805;28;20037;-78
2021/06/02 10:46:15;;;;;;;8.55;3.67;;;26.00;83.20;;;;;;5025283;28;20046;-79
2021/06/02 10:48:42;;;;;;;8.30;4.43;;;26.10;83.50;;;;;;5034710;28;20049;-78
2021/06/02 10:51:09;;;;;;;5.25;3.60;;;26.00;83.20;;;;;;5029989;28;20022;-76
2021/06/02 10:53:35;;;;;;;11.68;3.85;;;25.90;83.90;;;;;;5030081;28;20049;-77
2021/06/02 10:56:02;;;;;;;8.57;4.25;;;25.90;84.30;;;;;;5029470;28;20529;-79
2021/06/02 10:58:44;;;;;;;5.53;4.28;;;25.90;84.80;;;;;;5029412;28;20020;-79
2021/06/02 11:01:31;;;;;;;6.70;3.92;;;25.80;87.00;;;;;;5031261;28;20048;-76
2021/06/02 11:04:11;;;;;;;7.55;5.22;;;25.80;87.60;;;;;;5033899;28;20065;-77
2021/06/02 11:06:44;;;;;;;10.57;4.60;;;25.80;87.10;;;;;;5029442;28;20544;-75
2021/06/02 11:09:11;;;;;;;8.52;4.10;;;25.60;88.20;;;;;;5030279;28;20025;-79
2021/06/02 11:11:42;;;;;;;10.18;4.05;;;25.40;88.60;;;;;;5033349;28;20035;-82
2021/06/02 11:14:17;;;;;;;9.02;4.68;;;25.40;88.70;;;;;;5027221;28;20052;-77
2021/06/02 11:16:55;;;;;;;5.47;3.80;;;25.40;89.90;;;;;;5032441;28;20029;-79
2021/06/02 11:19:26;;;;;;;5.32;4.10;;;25.50;90.10;;;;;;5030613;28;20375;-79
2021/06/02 11:21:52;;;;;;;6.57;3.58;;;25.70;88.90;;;;;;5027315;28;20080;-83
2021/06/02 11:24:48;;;;;;;7.85;3.28;;;25.90;88.30;;;;;;5044270;28;20037;-81
2021/06/02 11:27:19;;;;;;;3.50;3.13;;;25.70;87.40;;;;;;5012059;28;20453;-83
2021/06/02 11:29:48;;;;;;;7.78;3.40;;;25.60;88.80;;;;;;5034429;28;20025;-83
2021/06/02 11:32:20;;;;;;;6.55;3.95;;;25.40;89.00;;;;;;5031792;28;20021;-84
2021/06/02 11:34:50;;;;;;;6.05;3.53;;;25.40;88.10;;;;;;5030807;28;20076;-83
2021/06/02 11:37:17;;;;;;;6.07;3.10;;;25.40;87.90;;;;;;5030747;28;20017;-81
2021/06/02 11:39:44;;;;;;;6.80;3.83;;;25.40;88.40;;;;;;5013022;28;20030;-82
2021/06/02 11:42:30;;;;;;;5.15;3.50;;;25.40;87.40;;;;;;5030359;28;20026;-83
2021/06/02 11:44:57;;;;;;;6.72;3.58;;;25.30;87.40;;;;;;5031783;28;20018;-81
2021/06/02 11:50:05;;;;;;;4.35;3.70;;;25.50;88.40;;;;;;5007800;28;20045;-81
2021/06/02 11:52:31;;;;;;;8.32;3.50;;;25.50;89.70;;;;;;4992202;28;20101;-82
2021/06/02 11:55:06;;;;;;;9.05;3.97;;;25.30;90.40;;;;;;5005662;28;20110;-79
2021/06/02 11:57:36;;;;;;;5.28;4.13;;;25.20;91.00;;;;;;5003984;28;20359;-82
2021/06/02 12:00:10;;;;;;;6.22;3.55;;;25.10;91.50;;;;;;5010371;28;20029;-81
2021/06/02 12:02:37;;;;;;;8.15;4.00;;;24.90;91.40;;;;;;5002188;28;20042;-81
2021/06/02 12:05:38;;;;;;;5.28;3.47;;;24.70;91.90;;;;;;5005066;28;20100;-82
2021/06/02 12:08:16;;;;;;;7.90;3.60;;;24.50;92.90;;;;;;4997077;28;20054;-80
2021/06/02 12:10:48;;;;;;;6.13;4.00;;;24.50;92.70;;;;;;5010928;28;20636;-82
2021/06/02 12:13:18;;;;;;;10.43;3.50;;;24.50;92.70;;;;;;5010178;28;20026;-82
2021/06/02 12:15:52;;;;;;;10.32;3.60;;;24.50;93.10;;;;;;4994519;28;20530;-81
2021/06/02 12:18:48;;;;;;;7.72;4.07;;;24.70;92.70;;;;;;4988044;28;20034;-80
2021/06/02 12:21:28;;;;;;;7.40;3.97;;;24.70;93.30;;;;;;4986911;28;20482;-81
2021/06/02 12:24:16;;;;;;;5.53;3.35;;;24.80;92.20;;;;;;5001090;28;20034;-81
2021/06/02 12:26:46;;;;;;;4.15;3.45;;;24.70;92.30;;;;;;5008783;28;20028;-81
2021/06/02 12:29:15;;;;;;;5.38;3.50;;;24.60;92.30;;;;;;5000289;28;20023;-81
2021/06/02 12:31:48;;;;;;;8.02;3.65;;;24.50;92.50;;;;;;5012084;28;20537;-79
2021/06/02 12:34:24;;;;;;;5.90;3.22;;;24.30;92.30;;;;;;5013012;28;20023;-80
2021/06/02 12:36:57;;;;;;;11.18;3.33;;;24.20;91.70;;;;;;5020261;28;20020;-80
2021/06/02 12:39:28;;;;;;;11.57;3.65;;;24.10;91.80;;;;;;4996867;28;20486;-81
2021/06/02 12:41:54;;;;;;;7.07;3.13;;;24.10;92.80;;;;;;5002377;28;20497;-80
2021/06/02 12:44:28;;;;;;;4.25;2.75;;;24.10;92.10;;;;;;5016474;28;20033;-80
2021/06/02 12:47:14;;;;;;;11.10;3.92;;;24.00;92.30;;;;;;5003063;28;20098;-80
2021/06/02 12:49:45;;;;;;;9.25;3.75;;;24.00;93.00;;;;;;5013347;28;20077;-81
2021/06/02 12:52:11;;;;;;;4.65;3.13;;;23.90;92.70;;;;;;5006838;28;20022;-80
2021/06/02 12:54:40;;;;;;;5.38;3.30;;;24.00;93.40;;;;;;5015875;28;20031;-81
2021/06/02 12:57:07;;;;;;;4.80;2.97;;;24.10;92.90;;;;;;5020344;28;20117;-81
2021/06/02 12:59:35;;;;;;;4.10;2.53;;;24.10;92.30;;;;;;5000541;28;20031;-80
2021/06/02 13:02:04;;;;;;;8.52;3.95;;;24.10;91.90;;;;;;4989208;28;20021;-80
2021/06/02 13:04:31;;;;;;;13.88;7.47;;;24.20;91.50;;;;;;4994521;28;20074;-81
2021/06/02 13:06:57;;;;;;;13.20;3.25;;;24.40;90.00;;;;;;4994702;28;20022;-80
2021/06/02 13:09:24;;;;;;;4.47;3.17;;;24.50;91.70;;;;;;4994758;28;20022;-79
2021/06/02 13:11:51;;;;;;;3.85;2.83;;;24.30;91.60;;;;;;4994446;28;20049;-82
2021/06/02 13:14:18;;;;;;;9.10;2.88;;;24.30;91.10;;;;;;4994236;28;20522;-79
2021/06/02 13:16:51;;;;;;;4.80;3.30;;;24.30;90.10;;;;;;4993897;28;20586;-80
2021/06/02 13:19:17;;;;;;;3.60;2.78;;;24.40;90.30;;;;;;4997771;28;20033;-79
2021/06/02 13:21:51;;;;;;;3.80;2.95;;;24.40;89.40;;;;;;4998572;28;20040;-78
2021/06/02 13:24:25;;;;;;;6.03;3.85;;;24.40;88.90;;;;;;4998428;28;20041;-80
2021/06/02 13:26:59;;;;;;;9.40;4.50;;;24.40;90.20;;;;;;5005720;28;20057;-81
2021/06/02 13:29:25;;;;;;;8.63;3.20;;;24.50;90.30;;;;;;5018559;28;20017;-81
2021/06/02 13:31:53;;;;;;;5.38;2.92;;;24.50;90.10;;;;;;5006957;28;20030;-79
2021/06/02 13:34:38;;;;;;;3.83;2.42;;;24.50;91.70;;;;;;5008260;28;20030;-82